Terminal Aerodrome Forecast
Issued by NWS Lake Charles, LA

Home | Current Version | Previous Version | Text Only | Print | Product List | Glossary On
Versions: 1 2 3 4 5 6 7 8 9 10 11 12 13 14 15 16 17 18 19 20 21 22 23 24 25 26 27
363
FTUS44 KLCH 211321 AAB
TAFLCH
TAF AMD
KLCH 211321Z 2113/2212 13005KT P6SM BKN015
     FM211900 21011G18KT P6SM OVC015
     FM212100 21012G19KT P6SM VCTS OVC015CB
     FM220200 21006KT P6SM OVC050
     FM220700 25014G21KT P6SM OVC050=

USA.gov is the U.S. government's official web portal to all federal, state and local government web resources and services.